sensor_id;sensor_type;location;lat;lon;timestamp;pressure;altitude;pressure_sealevel;temperature;humidity
8705;BME280;4389;41.932;25.904;2023-05-20T00:01:18;100678.38;;;13.36;100.00
8705;BME280;4389;41.932;25.904;2023-05-20T00:03:46;100670.78;;;13.41;100.00
8705;BME280;4389;41.932;25.904;2023-05-20T00:06:12;100674.28;;;13.59;100.00
8705;BME280;4389;41.932;25.904;2023-05-20T00:08:39;100663.06;;;13.65;100.00
8705;BME280;4389;41.932;25.904;2023-05-20T00:11:06;100663.66;;;13.59;100.00
8705;BME280;4389;41.932;25.904;2023-05-20T00:13:33;100677.53;;;13.53;100.00
8705;BME280;4389;41.932;25.904;2023-05-20T00:16:02;100676.47;;;13.46;100.00
8705;BME280;4389;41.932;25.904;2023-05-20T00:18:29;100669.66;;;13.44;100.00
8705;BME280;4389;41.932;25.904;2023-05-20T00:20:56;100670.78;;;13.41;100.00
8705;BME280;4389;41.932;25.904;2023-05-20T00:23:23;100676.66;;;13.45;100.00
8705;BME280;4389;41.932;25.904;2023-05-20T00:25:50;100676.19;;;13.49;100.00
8705;BME280;4389;41.932;25.904;2023-05-20T00:28:17;100678.53;;;13.52;100.00
8705;BME280;4389;41.932;25.904;2023-05-20T00:30:45;100676.59;;;13.54;100.00
8705;BME280;4389;41.932;25.904;2023-05-20T00:33:13;100657.66;;;13.57;100.00
8705;BME280;4389;41.932;25.904;2023-05-20T00:35:40;100662.91;;;13.49;100.00
8705;BME280;4389;41.932;25.904;2023-05-20T00:38:07;100659.03;;;13.44;100.00
8705;BME280;4389;41.932;25.904;2023-05-20T00:40:34;100660.97;;;13.42;100.00
8705;BME280;4389;41.932;25.904;2023-05-20T00:43:00;100666.59;;;13.39;100.00
8705;BME280;4389;41.932;25.904;2023-05-20T00:45:28;100654.94;;;13.22;100.00
8705;BME280;4389;41.932;25.904;2023-05-20T00:47:54;100651.03;;;13.26;100.00
8705;BME280;4389;41.932;25.904;2023-05-20T00:50:25;100646.53;;;13.27;100.00
8705;BME280;4389;41.932;25.904;2023-05-20T00:52:52;100646.78;;;13.33;100.00
8705;BME280;4389;41.932;25.904;2023-05-20T00:55:20;100647.91;;;13.31;100.00
8705;BME280;4389;41.932;25.904;2023-05-20T00:57:47;100645.72;;;13.26;100.00
8705;BME280;4389;41.932;25.904;2023-05-20T01:00:14;100642.66;;;13.21;100.00
8705;BME280;4389;41.932;25.904;2023-05-20T01:02:41;100645.72;;;13.26;100.00
8705;BME280;4389;41.932;25.904;2023-05-20T01:05:08;100644.28;;;13.32;100.00
8705;BME280;4389;41.932;25.904;2023-05-20T01:07:36;100649.72;;;13.30;100.00
8705;BME280;4389;41.932;25.904;2023-05-20T01:10:04;100656.13;;;13.37;100.00
8705;BME280;4389;41.932;25.904;2023-05-20T01:12:36;100648.38;;;13.26;100.00
8705;BME280;4389;41.932;25.904;2023-05-20T01:15:07;100648.28;;;13.18;100.00
8705;BME280;4389;41.932;25.904;2023-05-20T01:17:38;100636.34;;;12.95;100.00
8705;BME280;4389;41.932;25.904;2023-05-20T01:20:07;100639.72;;;12.97;100.00
8705;BME280;4389;41.932;25.904;2023-05-20T01:22:38;100630.75;;;12.89;100.00
8705;BME280;4389;41.932;25.904;2023-05-20T01:25:05;100633.00;;;12.84;100.00
8705;BME280;4389;41.932;25.904;2023-05-20T01:27:32;100636.66;;;12.83;100.00
8705;BME280;4389;41.932;25.904;2023-05-20T01:29:59;100626.28;;;12.89;100.00
8705;BME280;4389;41.932;25.904;2023-05-20T01:32:31;100630.19;;;13.04;100.00
8705;BME280;4389;41.932;25.904;2023-05-20T01:35:00;100633.19;;;13.09;100.00
8705;BME280;4389;41.932;25.904;2023-05-20T01:37:30;100627.66;;;13.03;100.00
8705;BME280;4389;41.932;25.904;2023-05-20T01:39:59;100636.34;;;12.86;100.00
8705;BME280;4389;41.932;25.904;2023-05-20T01:42:26;100623.25;;;12.84;100.00
8705;BME280;4389;41.932;25.904;2023-05-20T01:44:54;100633.88;;;12.84;100.00
8705;BME280;4389;41.932;25.904;2023-05-20T01:47:21;100643.06;;;12.90;100.00
8705;BME280;4389;41.932;25.904;2023-05-20T01:49:48;100647.25;;;12.92;100.00
8705;BME280;4389;41.932;25.904;2023-05-20T01:52:17;100649.53;;;12.78;100.00
8705;BME280;4389;41.932;25.904;2023-05-20T01:54:44;100657.81;;;12.65;100.00
8705;BME280;4389;41.932;25.904;2023-05-20T01:57:17;100654.91;;;12.68;100.00
8705;BME280;4389;41.932;25.904;2023-05-20T01:59:43;100650.06;;;12.54;100.00
8705;BME280;4389;41.932;25.904;2023-05-20T02:02:10;100650.72;;;12.56;100.00
8705;BME280;4389;41.932;25.904;2023-05-20T02:04:37;100650.09;;;12.35;100.00
8705;BME280;4389;41.932;25.904;2023-05-20T02:07:04;100643.22;;;12.42;100.00
8705;BME280;4389;41.932;25.904;2023-05-20T02:09:31;100639.28;;;12.56;100.00
8705;BME280;4389;41.932;25.904;2023-05-20T02:11:57;100636.06;;;12.52;100.00
8705;BME280;4389;41.932;25.904;2023-05-20T02:14:26;100634.78;;;12.66;100.00
8705;BME280;4389;41.932;25.904;2023-05-20T02:16:52;100631.94;;;12.77;100.00
8705;BME280;4389;41.932;25.904;2023-05-20T02:19:19;100644.38;;;12.76;100.00
8705;BME280;4389;41.932;25.904;2023-05-20T02:21:48;100638.06;;;12.87;100.00
8705;BME280;4389;41.932;25.904;2023-05-20T02:24:15;100639.72;;;12.88;100.00
8705;BME280;4389;41.932;25.904;2023-05-20T02:26:44;100653.34;;;12.75;100.00
8705;BME280;4389;41.932;25.904;2023-05-20T02:29:11;100639.53;;;12.62;100.00
8705;BME280;4389;41.932;25.904;2023-05-20T02:31:39;100644.03;;;12.43;100.00
8705;BME280;4389;41.932;25.904;2023-05-20T02:34:06;100646.44;;;12.36;100.00
8705;BME280;4389;41.932;25.904;2023-05-20T02:36:33;100643.69;;;12.28;100.00
8705;BME280;4389;41.932;25.904;2023-05-20T02:39:00;100646.22;;;12.20;100.00
8705;BME280;4389;41.932;25.904;2023-05-20T02:41:27;100640.47;;;12.34;100.00
8705;BME280;4389;41.932;25.904;2023-05-20T02:43:54;100631.50;;;12.35;100.00
8705;BME280;4389;41.932;25.904;2023-05-20T02:46:20;100631.22;;;12.38;100.00
8705;BME280;4389;41.932;25.904;2023-05-20T02:48:49;100638.47;;;12.46;100.00
8705;BME280;4389;41.932;25.904;2023-05-20T02:51:15;100634.03;;;12.37;100.00
8705;BME280;4389;41.932;25.904;2023-05-20T02:53:42;100648.22;;;12.45;100.00
8705;BME280;4389;41.932;25.904;2023-05-20T02:56:09;100639.28;;;12.46;100.00
8705;BME280;4389;41.932;25.904;2023-05-20T02:58:37;100638.72;;;12.52;100.00
8705;BME280;4389;41.932;25.904;2023-05-20T03:01:04;100644.31;;;12.59;100.00
8705;BME280;4389;41.932;25.904;2023-05-20T03:03:32;100644.03;;;12.52;100.00
8705;BME280;4389;41.932;25.904;2023-05-20T03:06:00;100646.50;;;12.73;100.00
8705;BME280;4389;41.932;25.904;2023-05-20T03:08:27;100646.22;;;12.66;100.00
8705;BME280;4389;41.932;25.904;2023-05-20T03:10:54;100644.56;;;12.65;100.00
8705;BME280;4389;41.932;25.904;2023-05-20T03:13:20;100660.16;;;12.78;100.00
8705;BME280;4389;41.932;25.904;2023-05-20T03:15:47;100661.50;;;12.91;100.00
8705;BME280;4389;41.932;25.904;2023-05-20T03:18:14;100659.84;;;13.17;100.00
8705;BME280;4389;41.932;25.904;2023-05-20T03:20:41;100652.47;;;13.38;100.00
8705;BME280;4389;41.932;25.904;2023-05-20T03:23:09;100644.06;;;13.60;100.00
8705;BME280;4389;41.932;25.904;2023-05-20T03:25:36;100650.91;;;13.80;100.00
8705;BME280;4389;41.932;25.904;2023-05-20T03:28:03;100660.03;;;13.95;100.00
8705;BME280;4389;41.932;25.904;2023-05-20T03:30:31;100661.84;;;14.12;100.00
8705;BME280;4389;41.932;25.904;2023-05-20T03:32:58;100660.06;;;14.38;99.22
8705;BME280;4389;41.932;25.904;2023-05-20T03:35:27;100664.16;;;14.75;97.54
8705;BME280;4389;41.932;25.904;2023-05-20T03:37:54;100666.34;;;15.55;94.01
8705;BME280;4389;41.932;25.904;2023-05-20T03:40:23;100668.06;;;15.80;92.17
8705;BME280;4389;41.932;25.904;2023-05-20T03:42:49;100674.25;;;16.68;89.25
8705;BME280;4389;41.932;25.904;2023-05-20T03:45:16;100681.19;;;17.01;85.30
8705;BME280;4389;41.932;25.904;2023-05-20T03:47:43;100674.19;;;17.00;84.90
8705;BME280;4389;41.932;25.904;2023-05-20T03:50:10;100667.56;;;17.27;84.10
8705;BME280;4389;41.932;25.904;2023-05-20T03:52:37;100667.22;;;17.38;83.18
8705;BME280;4389;41.932;25.904;2023-05-20T03:55:05;100675.75;;;17.64;83.20
8705;BME280;4389;41.932;25.904;2023-05-20T03:57:34;100670.38;;;17.94;81.55
8705;BME280;4389;41.932;25.904;2023-05-20T04:00:01;100665.78;;;17.80;81.40
8705;BME280;4389;41.932;25.904;2023-05-20T04:02:29;100675.81;;;18.83;79.15
8705;BME280;4389;41.932;25.904;2023-05-20T04:04:56;100676.16;;;19.87;75.08
8705;BME280;4389;41.932;25.904;2023-05-20T04:07:26;100686.63;;;20.18;71.39
8705;BME280;4389;41.932;25.904;2023-05-20T04:09:54;100685.34;;;19.99;71.67
8705;BME280;4389;41.932;25.904;2023-05-20T04:12:21;100684.41;;;19.21;73.94
8705;BME280;4389;41.932;25.904;2023-05-20T04:14:51;100669.38;;;18.55;78.08
8705;BME280;4389;41.932;25.904;2023-05-20T04:17:19;100672.84;;;18.92;78.09
8705;BME280;4389;41.932;25.904;2023-05-20T04:19:46;100671.84;;;20.28;74.67
8705;BME280;4389;41.932;25.904;2023-05-20T04:22:13;100669.56;;;21.55;68.31
8705;BME280;4389;41.932;25.904;2023-05-20T04:24:40;100680.16;;;22.55;63.62
8705;BME280;4389;41.932;25.904;2023-05-20T04:27:06;100690.06;;;23.00;60.84
8705;BME280;4389;41.932;25.904;2023-05-20T04:29:33;100697.72;;;23.86;58.55
8705;BME280;4389;41.932;25.904;2023-05-20T04:32:02;100702.91;;;24.49;55.56
8705;BME280;4389;41.932;25.904;2023-05-20T04:34:29;100698.75;;;24.78;54.64
8705;BME280;4389;41.932;25.904;2023-05-20T04:36:59;100696.84;;;24.23;55.82
8705;BME280;4389;41.932;25.904;2023-05-20T04:39:26;100708.50;;;23.80;56.98
8705;BME280;4389;41.932;25.904;2023-05-20T04:41:53;100712.50;;;23.01;59.41
8705;BME280;4389;41.932;25.904;2023-05-20T04:44:20;100709.28;;;21.87;63.11
8705;BME280;4389;41.932;25.904;2023-05-20T04:46:49;100706.31;;;21.28;66.47
8705;BME280;4389;41.932;25.904;2023-05-20T04:49:17;100714.41;;;21.75;66.84
8705;BME280;4389;41.932;25.904;2023-05-20T04:51:44;100705.38;;;22.02;65.29
8705;BME280;4389;41.932;25.904;2023-05-20T04:54:12;100713.53;;;20.94;69.66
8705;BME280;4389;41.932;25.904;2023-05-20T04:56:41;100699.81;;;19.98;74.25
8705;BME280;4389;41.932;25.904;2023-05-20T04:59:08;100702.22;;;19.22;77.43
8705;BME280;4389;41.932;25.904;2023-05-20T05:01:36;100700.03;;;18.75;80.07
8705;BME280;4389;41.932;25.904;2023-05-20T05:04:03;100702.41;;;18.55;82.19
8705;BME280;4389;41.932;25.904;2023-05-20T05:06:31;100718.81;;;18.52;82.63
8705;BME280;4389;41.932;25.904;2023-05-20T05:08:58;100701.91;;;18.52;83.21
8705;BME280;4389;41.932;25.904;2023-05-20T05:11:24;100700.03;;;18.38;84.22
8705;BME280;4389;41.932;25.904;2023-05-20T05:13:51;100702.16;;;18.20;85.50
8705;BME280;4389;41.932;25.904;2023-05-20T05:16:18;100703.34;;;18.17;85.81
8705;BME280;4389;41.932;25.904;2023-05-20T05:18:45;100707.50;;;18.20;86.12
8705;BME280;4389;41.932;25.904;2023-05-20T05:21:12;100702.22;;;18.12;86.90
8705;BME280;4389;41.932;25.904;2023-05-20T05:23:40;100708.44;;;18.27;87.27
8705;BME280;4389;41.932;25.904;2023-05-20T05:26:07;100699.19;;;18.37;87.14
8705;BME280;4389;41.932;25.904;2023-05-20T05:28:34;100703.59;;;18.53;86.71
8705;BME280;4389;41.932;25.904;2023-05-20T05:31:00;100699.63;;;18.63;87.21
8705;BME280;4389;41.932;25.904;2023-05-20T05:33:27;100701.03;;;18.74;86.05
8705;BME280;4389;41.932;25.904;2023-05-20T05:35:54;100708.88;;;18.61;82.33
8705;BME280;4389;41.932;25.904;2023-05-20T05:38:23;100711.78;;;19.02;84.89
8705;BME280;4389;41.932;25.904;2023-05-20T05:40:51;100709.00;;;18.82;85.66
8705;BME280;4389;41.932;25.904;2023-05-20T05:43:18;100711.28;;;18.70;85.68
8705;BME280;4389;41.932;25.904;2023-05-20T05:45:45;100713.44;;;18.75;85.84
8705;BME280;4389;41.932;25.904;2023-05-20T05:48:12;100722.84;;;18.71;86.17
8705;BME280;4389;41.932;25.904;2023-05-20T05:50:43;100720.44;;;18.76;87.41
8705;BME280;4389;41.932;25.904;2023-05-20T05:53:10;100722.31;;;18.89;86.14
8705;BME280;4389;41.932;25.904;2023-05-20T05:55:37;100722.22;;;18.83;85.33
8705;BME280;4389;41.932;25.904;2023-05-20T05:58:05;100704.28;;;18.83;86.55
8705;BME280;4389;41.932;25.904;2023-05-20T06:00:32;100720.94;;;18.57;86.90
8705;BME280;4389;41.932;25.904;2023-05-20T06:02:59;100718.41;;;18.41;87.77
8705;BME280;4389;41.932;25.904;2023-05-20T06:05:26;100719.88;;;18.66;87.70
8705;BME280;4389;41.932;25.904;2023-05-20T06:07:52;100724.28;;;18.95;87.64
8705;BME280;4389;41.932;25.904;2023-05-20T06:10:19;100723.47;;;19.38;85.76
8705;BME280;4389;41.932;25.904;2023-05-20T06:12:46;100729.38;;;19.48;84.02
8705;BME280;4389;41.932;25.904;2023-05-20T06:15:14;100711.03;;;19.66;83.74
8705;BME280;4389;41.932;25.904;2023-05-20T06:17:41;100712.91;;;19.51;80.73
8705;BME280;4389;41.932;25.904;2023-05-20T06:20:08;100713.53;;;19.68;81.81
8705;BME280;4389;41.932;25.904;2023-05-20T06:22:35;100709.66;;;19.56;80.15
8705;BME280;4389;41.932;25.904;2023-05-20T06:25:02;100713.16;;;19.56;82.17
8705;BME280;4389;41.932;25.904;2023-05-20T06:27:30;100705.66;;;19.66;82.52
8705;BME280;4389;41.932;25.904;2023-05-20T06:29:57;100709.22;;;19.52;82.17
8705;BME280;4389;41.932;25.904;2023-05-20T06:32:26;100707.97;;;19.69;81.23
8705;BME280;4389;41.932;25.904;2023-05-20T06:34:53;100702.41;;;20.06;79.99
8705;BME280;4389;41.932;25.904;2023-05-20T06:37:20;100699.34;;;20.09;78.06
8705;BME280;4389;41.932;25.904;2023-05-20T06:39:48;100692.34;;;19.94;77.29
8705;BME280;4389;41.932;25.904;2023-05-20T06:42:18;100695.53;;;19.83;76.88
8705;BME280;4389;41.932;25.904;2023-05-20T06:44:45;100686.38;;;19.98;77.01
8705;BME280;4389;41.932;25.904;2023-05-20T06:47:13;100688.88;;;20.14;74.66
8705;BME280;4389;41.932;25.904;2023-05-20T06:49:43;100687.88;;;20.43;75.63
8705;BME280;4389;41.932;25.904;2023-05-20T06:52:09;100686.63;;;20.66;75.50
8705;BME280;4389;41.932;25.904;2023-05-20T06:54:36;100678.25;;;20.82;74.12
8705;BME280;4389;41.932;25.904;2023-05-20T06:57:06;100680.81;;;20.90;72.03
8705;BME280;4389;41.932;25.904;2023-05-20T06:59:33;100684.47;;;21.10;74.57
8705;BME280;4389;41.932;25.904;2023-05-20T07:02:00;100688.44;;;21.14;72.88
8705;BME280;4389;41.932;25.904;2023-05-20T07:04:27;100689.72;;;21.25;74.03
8705;BME280;4389;41.932;25.904;2023-05-20T07:06:55;100684.81;;;21.41;73.54
8705;BME280;4389;41.932;25.904;2023-05-20T07:09:22;100707.47;;;21.13;72.40
8705;BME280;4389;41.932;25.904;2023-05-20T07:11:49;100691.19;;;20.93;72.71
8705;BME280;4389;41.932;25.904;2023-05-20T07:14:16;100691.19;;;20.93;72.61
8705;BME280;4389;41.932;25.904;2023-05-20T07:16:43;100686.03;;;21.32;72.82
8705;BME280;4389;41.932;25.904;2023-05-20T07:19:09;100681.06;;;21.36;72.10
8705;BME280;4389;41.932;25.904;2023-05-20T07:21:36;100681.50;;;21.39;70.23
8705;BME280;4389;41.932;25.904;2023-05-20T07:24:05;100686.09;;;21.52;69.60
8705;BME280;4389;41.932;25.904;2023-05-20T07:26:32;100691.31;;;21.53;70.42
8705;BME280;4389;41.932;25.904;2023-05-20T07:29:01;100690.69;;;21.58;70.52
8705;BME280;4389;41.932;25.904;2023-05-20T07:31:28;100684.16;;;21.73;68.40
8705;BME280;4389;41.932;25.904;2023-05-20T07:33:55;100690.81;;;21.90;65.79
8705;BME280;4389;41.932;25.904;2023-05-20T07:36:22;100691.25;;;21.87;64.69
8705;BME280;4389;41.932;25.904;2023-05-20T07:38:49;100682.31;;;21.74;65.63
8705;BME280;4389;41.932;25.904;2023-05-20T07:41:17;100684.16;;;21.80;64.82
8705;BME280;4389;41.932;25.904;2023-05-20T07:43:44;100685.69;;;22.08;63.11
8705;BME280;4389;41.932;25.904;2023-05-20T07:46:11;100703.25;;;21.91;65.26
8705;BME280;4389;41.932;25.904;2023-05-20T07:48:38;100676.53;;;21.96;62.51
8705;BME280;4389;41.932;25.904;2023-05-20T07:51:05;100704.06;;;21.79;64.63
8705;BME280;4389;41.932;25.904;2023-05-20T07:53:31;100687.69;;;21.80;65.34
8705;BME280;4389;41.932;25.904;2023-05-20T07:55:59;100694.97;;;21.86;65.00
8705;BME280;4389;41.932;25.904;2023-05-20T07:58:27;100702.84;;;21.81;65.91
8705;BME280;4389;41.932;25.904;2023-05-20T08:00:56;100708.94;;;21.62;65.37
8705;BME280;4389;41.932;25.904;2023-05-20T08:03:22;100719.63;;;21.83;65.16
8705;BME280;4389;41.932;25.904;2023-05-20T08:05:49;100719.00;;;21.81;63.81
8705;BME280;4389;41.932;25.904;2023-05-20T08:08:16;100709.97;;;22.15;64.04
8705;BME280;4389;41.932;25.904;2023-05-20T08:10:43;100725.09;;;22.16;62.77
8705;BME280;4389;41.932;25.904;2023-05-20T08:13:10;100726.47;;;21.79;62.40
8705;BME280;4389;41.932;25.904;2023-05-20T08:15:38;100743.00;;;21.70;64.08
8705;BME280;4389;41.932;25.904;2023-05-20T08:18:05;100728.84;;;21.61;61.81
8705;BME280;4389;41.932;25.904;2023-05-20T08:20:32;100746.03;;;21.60;62.39
8705;BME280;4389;41.932;25.904;2023-05-20T08:22:59;100758.31;;;21.69;62.31
8705;BME280;4389;41.932;25.904;2023-05-20T08:25:25;100725.63;;;21.79;63.85
8705;BME280;4389;41.932;25.904;2023-05-20T08:27:52;100717.34;;;21.80;60.31
8705;BME280;4389;41.932;25.904;2023-05-20T08:30:19;100736.41;;;21.79;60.91
8705;BME280;4389;41.932;25.904;2023-05-20T08:32:48;100706.94;;;21.71;61.69
8705;BME280;4389;41.932;25.904;2023-05-20T08:35:14;100726.06;;;21.42;61.76
8705;BME280;4389;41.932;25.904;2023-05-20T08:37:41;100730.78;;;21.33;61.21
8705;BME280;4389;41.932;25.904;2023-05-20T08:40:09;100709.78;;;21.56;63.12
8705;BME280;4389;41.932;25.904;2023-05-20T08:42:40;100705.53;;;21.81;62.87
8705;BME280;4389;41.932;25.904;2023-05-20T08:45:10;100721.88;;;21.67;61.17
8705;BME280;4389;41.932;25.904;2023-05-20T08:47:38;100714.16;;;21.23;63.77
8705;BME280;4389;41.932;25.904;2023-05-20T08:50:08;100715.28;;;21.08;64.81
8705;BME280;4389;41.932;25.904;2023-05-20T08:52:37;100713.97;;;20.97;66.60
8705;BME280;4389;41.932;25.904;2023-05-20T08:55:08;100704.78;;;20.85;68.31
8705;BME280;4389;41.932;25.904;2023-05-20T08:57:37;100712.31;;;20.96;66.69
8705;BME280;4389;41.932;25.904;2023-05-20T09:00:07;100704.28;;;20.75;66.88
8705;BME280;4389;41.932;25.904;2023-05-20T09:02:37;100705.91;;;20.70;66.42
8705;BME280;4389;41.932;25.904;2023-05-20T09:05:05;100696.09;;;20.62;66.28
8705;BME280;4389;41.932;25.904;2023-05-20T09:07:35;100690.56;;;20.70;67.36
8705;BME280;4389;41.932;25.904;2023-05-20T09:10:02;100693.91;;;20.72;68.38
8705;BME280;4389;41.932;25.904;2023-05-20T09:12:29;100699.94;;;20.74;68.29
8705;BME280;4389;41.932;25.904;2023-05-20T09:14:56;100700.06;;;20.66;67.01
8705;BME280;4389;41.932;25.904;2023-05-20T09:17:23;100694.69;;;20.66;67.28
8705;BME280;4389;41.932;25.904;2023-05-20T09:19:50;100697.75;;;20.63;67.22
8705;BME280;4389;41.932;25.904;2023-05-20T09:22:21;100704.16;;;20.62;67.82
8705;BME280;4389;41.932;25.904;2023-05-20T09:24:50;100698.13;;;20.81;68.16
8705;BME280;4389;41.932;25.904;2023-05-20T09:27:17;100700.00;;;21.08;66.49
8705;BME280;4389;41.932;25.904;2023-05-20T09:29:46;100692.13;;;21.13;65.74
8705;BME280;4389;41.932;25.904;2023-05-20T09:32:13;100697.50;;;21.47;64.45
8705;BME280;4389;41.932;25.904;2023-05-20T09:34:40;100690.16;;;21.69;63.37
8705;BME280;4389;41.932;25.904;2023-05-20T09:37:08;100686.75;;;22.07;63.84
8705;BME280;4389;41.932;25.904;2023-05-20T09:39:44;100684.25;;;22.25;61.60
8705;BME280;4389;41.932;25.904;2023-05-20T09:42:19;100680.13;;;22.29;60.43
8705;BME280;4389;41.932;25.904;2023-05-20T09:44:49;100666.88;;;22.54;59.64
8705;BME280;4389;41.932;25.904;2023-05-20T09:47:16;100668.09;;;22.84;57.10
8705;BME280;4389;41.932;25.904;2023-05-20T09:49:45;100661.47;;;22.60;58.64
8705;BME280;4389;41.932;25.904;2023-05-20T09:52:13;100663.13;;;22.74;57.33
8705;BME280;4389;41.932;25.904;2023-05-20T09:54:42;100650.41;;;22.94;56.69
8705;BME280;4389;41.932;25.904;2023-05-20T09:57:11;100667.28;;;22.70;57.18
8705;BME280;4389;41.932;25.904;2023-05-20T09:59:39;100662.28;;;22.35;58.94
8705;BME280;4389;41.932;25.904;2023-05-20T10:02:07;100656.88;;;22.93;59.31
8705;BME280;4389;41.932;25.904;2023-05-20T10:04:36;100656.69;;;22.62;57.57
8705;BME280;4389;41.932;25.904;2023-05-20T10:07:25;100665.16;;;22.92;59.43
8705;BME280;4389;41.932;25.904;2023-05-20T10:10:02;100653.09;;;23.01;57.46
8705;BME280;4389;41.932;25.904;2023-05-20T10:12:37;100659.75;;;23.05;55.67
8705;BME280;4389;41.932;25.904;2023-05-20T10:15:16;100647.47;;;23.15;58.06
8705;BME280;4389;41.932;25.904;2023-05-20T10:17:51;100653.13;;;22.94;59.51
8705;BME280;4389;41.932;25.904;2023-05-20T10:20:19;100644.84;;;22.37;59.15
8705;BME280;4389;41.932;25.904;2023-05-20T10:22:54;100652.53;;;22.14;61.30
8705;BME280;4389;41.932;25.904;2023-05-20T10:25:23;100659.28;;;21.84;60.91
8705;BME280;4389;41.932;25.904;2023-05-20T10:27:51;100668.84;;;21.80;59.77
8705;BME280;4389;41.932;25.904;2023-05-20T10:30:30;100643.59;;;22.07;60.19
8705;BME280;4389;41.932;25.904;2023-05-20T10:33:01;100639.22;;;21.93;60.98
8705;BME280;4389;41.932;25.904;2023-05-20T10:35:29;100641.31;;;22.17;59.99
8705;BME280;4389;41.932;25.904;2023-05-20T10:38:06;100641.34;;;22.24;58.21
8705;BME280;4389;41.932;25.904;2023-05-20T10:40:33;100636.16;;;22.35;57.87
8705;BME280;4389;41.932;25.904;2023-05-20T10:43:08;100633.88;;;22.45;57.88
8705;BME280;4389;41.932;25.904;2023-05-20T10:45:46;100636.53;;;22.84;57.16
8705;BME280;4389;41.932;25.904;2023-05-20T10:48:19;100637.66;;;23.34;55.99
8705;BME280;4389;41.932;25.904;2023-05-20T10:50:46;100631.06;;;23.10;54.06
8705;BME280;4389;41.932;25.904;2023-05-20T10:53:14;100631.28;;;23.02;54.27
8705;BME280;4389;41.932;25.904;2023-05-20T10:55:47;100640.66;;;22.93;53.99
8705;BME280;4389;41.932;25.904;2023-05-20T10:58:16;100637.34;;;22.91;55.32
8705;BME280;4389;41.932;25.904;2023-05-20T11:00:44;100644.81;;;22.89;54.49
8705;BME280;4389;41.932;25.904;2023-05-20T11:03:12;100638.63;;;22.69;54.85
8705;BME280;4389;41.932;25.904;2023-05-20T11:05:39;100631.13;;;22.78;54.39
8705;BME280;4389;41.932;25.904;2023-05-20T11:08:08;100628.25;;;22.79;54.33
8705;BME280;4389;41.932;25.904;2023-05-20T11:10:35;100645.91;;;22.62;54.83
8705;BME280;4389;41.932;25.904;2023-05-20T11:13:03;100626.16;;;22.81;54.85
8705;BME280;4389;41.932;25.904;2023-05-20T11:15:30;100622.75;;;23.18;54.82
8705;BME280;4389;41.932;25.904;2023-05-20T11:18:00;100613.19;;;23.09;54.51
8705;BME280;4389;41.932;25.904;2023-05-20T11:20:28;100612.41;;;22.89;56.18
8705;BME280;4389;41.932;25.904;2023-05-20T11:22:59;100611.16;;;22.98;56.22
8705;BME280;4389;41.932;25.904;2023-05-20T11:25:27;100602.66;;;22.88;55.32
8705;BME280;4389;41.932;25.904;2023-05-20T11:27:54;100614.34;;;22.69;55.43
8705;BME280;4389;41.932;25.904;2023-05-20T11:30:21;100617.88;;;22.24;56.02
8705;BME280;4389;41.932;25.904;2023-05-20T11:32:59;100613.31;;;22.18;58.89
8705;BME280;4389;41.932;25.904;2023-05-20T11:35:27;100615.19;;;22.05;58.51
8705;BME280;4389;41.932;25.904;2023-05-20T11:37:56;100616.63;;;21.94;58.68
8705;BME280;4389;41.932;25.904;2023-05-20T11:40:24;100612.47;;;21.85;59.52
8705;BME280;4389;41.932;25.904;2023-05-20T11:42:56;100602.09;;;21.82;57.62
8705;BME280;4389;41.932;25.904;2023-05-20T11:45:23;100611.22;;;21.81;57.54
8705;BME280;4389;41.932;25.904;2023-05-20T11:48:00;100600.22;;;21.76;57.63
8705;BME280;4389;41.932;25.904;2023-05-20T11:50:27;100604.56;;;21.77;57.43
8705;BME280;4389;41.932;25.904;2023-05-20T11:52:57;100602.06;;;21.69;57.35
8705;BME280;4389;41.932;25.904;2023-05-20T11:55:24;100606.56;;;21.62;58.45
8705;BME280;4389;41.932;25.904;2023-05-20T11:57:51;100604.25;;;21.46;59.27
8705;BME280;4389;41.932;25.904;2023-05-20T12:00:18;100622.44;;;21.25;59.67
8705;BME280;4389;41.932;25.904;2023-05-20T12:02:45;100605.19;;;21.19;58.63
8705;BME280;4389;41.932;25.904;2023-05-20T12:05:14;100619.31;;;21.21;59.72
8705;BME280;4389;41.932;25.904;2023-05-20T12:07:41;100614.38;;;21.31;59.90
8705;BME280;4389;41.932;25.904;2023-05-20T12:10:08;100618.31;;;21.35;59.48
8705;BME280;4389;41.932;25.904;2023-05-20T12:12:36;100613.94;;;21.34;59.99
8705;BME280;4389;41.932;25.904;2023-05-20T12:15:03;100614.41;;;21.44;59.73
8705;BME280;4389;41.932;25.904;2023-05-20T12:17:31;100617.72;;;21.46;58.85
8705;BME280;4389;41.932;25.904;2023-05-20T12:19:58;100605.97;;;21.60;59.87
8705;BME280;4389;41.932;25.904;2023-05-20T12:22:26;100609.94;;;21.77;59.08
8705;BME280;4389;41.932;25.904;2023-05-20T12:24:53;100602.50;;;21.79;58.43
8705;BME280;4389;41.932;25.904;2023-05-20T12:27:19;100600.47;;;21.94;57.86
8705;BME280;4389;41.932;25.904;2023-05-20T12:29:47;100605.88;;;22.07;57.44
8705;BME280;4389;41.932;25.904;2023-05-20T12:32:14;100593.00;;;22.22;56.10
8705;BME280;4389;41.932;25.904;2023-05-20T12:34:40;100595.06;;;22.46;55.37
8705;BME280;4389;41.932;25.904;2023-05-20T12:37:07;100587.56;;;22.61;56.00
8705;BME280;4389;41.932;25.904;2023-05-20T12:39:35;100576.81;;;22.48;57.07
8705;BME280;4389;41.932;25.904;2023-05-20T12:42:02;100568.47;;;22.69;57.75
8705;BME280;4389;41.932;25.904;2023-05-20T12:44:29;100562.53;;;23.05;56.99
8705;BME280;4389;41.932;25.904;2023-05-20T12:46:56;100562.91;;;23.21;55.27
8705;BME280;4389;41.932;25.904;2023-05-20T12:49:23;100550.38;;;23.33;53.79
8705;BME280;4389;41.932;25.904;2023-05-20T12:51:50;100537.31;;;23.61;53.50
8705;BME280;4389;41.932;25.904;2023-05-20T12:54:17;100543.25;;;24.01;53.11
8705;BME280;4389;41.932;25.904;2023-05-20T12:56:45;100539.66;;;24.31;51.67
8705;BME280;4389;41.932;25.904;2023-05-20T12:59:12;100527.81;;;24.50;51.40
8705;BME280;4389;41.932;25.904;2023-05-20T13:01:39;100518.91;;;24.67;51.75